N913MB KIPL-L05
Flight info
| Callsign | N913MB |
|---|---|
| Flight time | N/A |
| Altitude | 20000 |
| Route | IPL V137 PMD V197 AMONT |
| Aircraft | TBM9/L-VGDW/C |
Departure
| Time | 2026-05-05 20:00 |
|---|---|
| Airport | Imperial County Airport (KIPL) |
Arrival
| Time | N/A |
|---|---|
| Airport | L05 |
| Time | Latitude | Longitude | Altitude | Speed | Heading |
|---|---|---|---|---|---|
| 2026-05-05 19:51 | 32.83947 | -115.57393 | -47 ft | 0 kts | 270° |
| 2026-05-05 19:54 | 32.83936 | -115.57408 | -47 ft | 6 kts | 220° |
| 2026-05-05 19:54 | 32.83923 | -115.57488 | -47 ft | 13 kts | 272° |
| 2026-05-05 19:54 | 32.83922 | -115.57604 | -45 ft | 7 kts | 246° |
| 2026-05-05 19:55 | 32.83842 | -115.57580 | -45 ft | 16 kts | 151° |
| 2026-05-05 19:55 | 32.83780 | -115.57541 | -45 ft | 12 kts | 152° |
| 2026-05-05 19:55 | 32.83718 | -115.57546 | -45 ft | 12 kts | 243° |
| 2026-05-05 19:55 | 32.83669 | -115.57660 | -45 ft | 15 kts | 241° |
| 2026-05-05 19:56 | 32.83596 | -115.57678 | -45 ft | 12 kts | 152° |
| 2026-05-05 19:56 | 32.83503 | -115.57620 | -45 ft | 19 kts | 153° |
| 2026-05-05 19:56 | 32.83378 | -115.57541 | -45 ft | 17 kts | 150° |
| 2026-05-05 19:56 | 32.83306 | -115.57558 | -45 ft | 12 kts | 178° |
| 2026-05-05 19:57 | 32.83263 | -115.57557 | -45 ft | 0 kts | 177° |
| 2026-05-05 19:59 | 32.83262 | -115.57556 | -45 ft | 1 kts | 177° |
| 2026-05-05 19:59 | 32.83223 | -115.57555 | -45 ft | 10 kts | 191° |
| 2026-05-05 20:00 | 32.83211 | -115.57725 | -45 ft | 49 kts | 270° |
| 2026-05-05 20:00 | 32.83216 | -115.58399 | 90 ft | 93 kts | 266° |
| 2026-05-05 20:00 | 32.83253 | -115.59132 | 639 ft | 89 kts | 268° |
| 2026-05-05 20:00 | 32.83324 | -115.59838 | 1206 ft | 89 kts | 284° |
| 2026-05-05 20:01 | 32.83808 | -115.60367 | 1722 ft | 109 kts | 328° |
| 2026-05-05 20:01 | 32.84667 | -115.60332 | 2100 ft | 143 kts | 16° |
| 2026-05-05 20:01 | 32.85516 | -115.59585 | 2563 ft | 160 kts | 36° |
| 2026-05-05 20:01 | 32.86372 | -115.58655 | 3066 ft | 168 kts | 37° |
| 2026-05-05 20:02 | 32.87225 | -115.57700 | 3668 ft | 168 kts | 38° |
| 2026-05-05 20:02 | 32.88083 | -115.56739 | 4242 ft | 169 kts | 37° |
| 2026-05-05 20:02 | 32.88931 | -115.55783 | 4810 ft | 169 kts | 38° |
| 2026-05-05 20:02 | 32.89805 | -115.54851 | 5357 ft | 166 kts | 24° |
| 2026-05-05 20:03 | 32.90868 | -115.54644 | 5855 ft | 150 kts | 336° |
| 2026-05-05 20:03 | 32.91749 | -115.55241 | 6384 ft | 147 kts | 318° |
| 2026-05-05 20:03 | 32.92578 | -115.55938 | 6953 ft | 147 kts | 318° |
| 2026-05-05 20:03 | 32.93414 | -115.56647 | 7511 ft | 149 kts | 318° |
| 2026-05-05 20:04 | 32.94253 | -115.57357 | 8064 ft | 151 kts | 318° |
| 2026-05-05 20:04 | 32.95106 | -115.58080 | 8675 ft | 152 kts | 319° |
| 2026-05-05 20:04 | 32.95969 | -115.58809 | 9285 ft | 152 kts | 319° |
| 2026-05-05 20:04 | 32.96835 | -115.59544 | 9869 ft | 154 kts | 319° |
| 2026-05-05 20:05 | 32.97704 | -115.60282 | 10449 ft | 156 kts | 319° |
| 2026-05-05 20:05 | 32.98595 | -115.61038 | 11021 ft | 158 kts | 320° |
| 2026-05-05 20:05 | 32.99484 | -115.61793 | 11576 ft | 160 kts | 320° |
| 2026-05-05 20:05 | 33.00407 | -115.62576 | 12147 ft | 163 kts | 320° |
| 2026-05-05 20:06 | 33.01324 | -115.63351 | 12715 ft | 164 kts | 320° |
| 2026-05-05 20:06 | 33.02250 | -115.64134 | 13292 ft | 165 kts | 320° |
| 2026-05-05 20:06 | 33.03189 | -115.64931 | 13868 ft | 166 kts | 319° |
| 2026-05-05 20:06 | 33.04135 | -115.65733 | 14437 ft | 168 kts | 319° |
| 2026-05-05 20:07 | 33.05090 | -115.66545 | 15014 ft | 170 kts | 319° |
| 2026-05-05 20:07 | 33.06061 | -115.67371 | 15580 ft | 171 kts | 319° |
| 2026-05-05 20:07 | 33.07044 | -115.68206 | 16128 ft | 173 kts | 319° |
| 2026-05-05 20:07 | 33.08022 | -115.69039 | 16649 ft | 175 kts | 319° |
| 2026-05-05 20:08 | 33.09022 | -115.69890 | 17158 ft | 177 kts | 319° |
| 2026-05-05 20:08 | 33.10045 | -115.70762 | 17657 ft | 179 kts | 319° |
| 2026-05-05 20:08 | 33.11047 | -115.71616 | 18126 ft | 182 kts | 319° |
| 2026-05-05 20:08 | 33.12100 | -115.72513 | 18657 ft | 187 kts | 319° |
| 2026-05-05 20:09 | 33.13160 | -115.73414 | 19250 ft | 188 kts | 319° |
| 2026-05-05 20:09 | 33.14218 | -115.74313 | 19819 ft | 189 kts | 318° |
| 2026-05-05 20:09 | 33.15337 | -115.75272 | 19960 ft | 209 kts | 318° |
| 2026-05-05 20:09 | 33.16583 | -115.76341 | 19973 ft | 229 kts | 319° |
| 2026-05-05 20:10 | 33.17932 | -115.77493 | 19963 ft | 244 kts | 319° |
| 2026-05-05 20:10 | 33.19356 | -115.78709 | 19952 ft | 255 kts | 319° |
| 2026-05-05 20:10 | 33.20836 | -115.79971 | 19942 ft | 263 kts | 319° |
| 2026-05-05 20:10 | 33.22334 | -115.81250 | 19935 ft | 268 kts | 320° |
| 2026-05-05 20:11 | 33.23861 | -115.82553 | 19929 ft | 271 kts | 320° |
| 2026-05-05 20:11 | 33.25347 | -115.83822 | 19926 ft | 273 kts | 320° |
| 2026-05-05 20:11 | 33.26908 | -115.85156 | 19923 ft | 275 kts | 320° |
| 2026-05-05 20:11 | 33.28476 | -115.86496 | 19921 ft | 276 kts | 320° |
| 2026-05-05 20:12 | 33.30034 | -115.87829 | 19918 ft | 277 kts | 320° |
| 2026-05-05 20:12 | 33.31623 | -115.89189 | 19916 ft | 278 kts | 320° |
| 2026-05-05 20:12 | 33.33196 | -115.90536 | 19914 ft | 278 kts | 320° |
| 2026-05-05 20:12 | 33.34774 | -115.91888 | 19913 ft | 278 kts | 320° |
| 2026-05-05 20:13 | 33.36354 | -115.93243 | 19912 ft | 279 kts | 320° |
| 2026-05-05 20:13 | 33.37938 | -115.94601 | 19912 ft | 279 kts | 320° |
| 2026-05-05 20:13 | 33.39514 | -115.95954 | 19912 ft | 279 kts | 320° |
| 2026-05-05 20:13 | 33.41085 | -115.97302 | 19912 ft | 279 kts | 320° |
| 2026-05-05 20:14 | 33.42674 | -115.98667 | 19912 ft | 279 kts | 320° |
| 2026-05-05 20:14 | 33.44244 | -116.00016 | 19912 ft | 279 kts | 320° |
| 2026-05-05 20:14 | 33.45823 | -116.01375 | 19912 ft | 279 kts | 320° |
| 2026-05-05 20:14 | 33.47397 | -116.02728 | 19912 ft | 279 kts | 320° |
| 2026-05-05 20:15 | 33.48989 | -116.04099 | 19912 ft | 279 kts | 320° |
| 2026-05-05 20:15 | 33.50550 | -116.05443 | 19911 ft | 279 kts | 320° |
| 2026-05-05 20:15 | 33.52143 | -116.06815 | 19911 ft | 279 kts | 320° |
| 2026-05-05 20:15 | 33.53709 | -116.08165 | 19911 ft | 279 kts | 320° |
| 2026-05-05 20:16 | 33.55304 | -116.09540 | 19911 ft | 279 kts | 320° |
| 2026-05-05 20:16 | 33.56886 | -116.10905 | 19911 ft | 279 kts | 320° |
| 2026-05-05 20:16 | 33.58469 | -116.12270 | 19911 ft | 279 kts | 320° |
| 2026-05-05 20:16 | 33.60035 | -116.13623 | 19911 ft | 279 kts | 320° |
| 2026-05-05 20:17 | 33.61610 | -116.14984 | 19911 ft | 279 kts | 320° |
| 2026-05-05 20:17 | 33.63167 | -116.16404 | 19907 ft | 277 kts | 314° |
| 2026-05-05 20:17 | 33.64576 | -116.17970 | 19913 ft | 276 kts | 313° |
| 2026-05-05 20:17 | 33.65997 | -116.19554 | 19911 ft | 277 kts | 313° |
| 2026-05-05 20:18 | 33.67404 | -116.21121 | 19911 ft | 277 kts | 313° |
| 2026-05-05 20:18 | 33.68805 | -116.22680 | 19911 ft | 277 kts | 313° |
| 2026-05-05 20:18 | 33.70218 | -116.24252 | 19911 ft | 277 kts | 313° |
| 2026-05-05 20:18 | 33.71643 | -116.25838 | 19911 ft | 277 kts | 313° |
| 2026-05-05 20:19 | 33.73048 | -116.27402 | 19911 ft | 277 kts | 313° |
| 2026-05-05 20:19 | 33.74456 | -116.28971 | 19911 ft | 277 kts | 313° |
| 2026-05-05 20:19 | 33.75892 | -116.30571 | 19911 ft | 277 kts | 313° |
| 2026-05-05 20:19 | 33.77292 | -116.32132 | 19911 ft | 277 kts | 313° |
| 2026-05-05 20:20 | 33.78721 | -116.33727 | 19913 ft | 277 kts | 313° |
| 2026-05-05 20:20 | 33.80134 | -116.35304 | 19915 ft | 277 kts | 313° |
| 2026-05-05 20:20 | 33.81553 | -116.36887 | 19917 ft | 277 kts | 313° |
| 2026-05-05 20:20 | 33.82961 | -116.38460 | 19920 ft | 276 kts | 313° |
| 2026-05-05 20:21 | 33.84358 | -116.40022 | 19923 ft | 276 kts | 313° |
| 2026-05-05 20:21 | 33.85772 | -116.41602 | 19926 ft | 276 kts | 313° |
| 2026-05-05 20:21 | 33.87134 | -116.43230 | 19918 ft | 274 kts | 304° |
| 2026-05-05 20:21 | 33.88090 | -116.45183 | 19941 ft | 271 kts | 296° |
| 2026-05-05 20:22 | 33.89019 | -116.47174 | 19934 ft | 271 kts | 296° |
| 2026-05-05 20:22 | 33.89949 | -116.49148 | 19935 ft | 271 kts | 296° |
| 2026-05-05 20:22 | 33.90846 | -116.51041 | 19935 ft | 271 kts | 297° |
| 2026-05-05 20:22 | 33.91788 | -116.53025 | 19936 ft | 271 kts | 297° |
| 2026-05-05 20:23 | 33.92731 | -116.55010 | 19937 ft | 271 kts | 297° |
| 2026-05-05 20:23 | 33.93659 | -116.56964 | 19937 ft | 271 kts | 297° |
| 2026-05-05 20:23 | 33.94600 | -116.58947 | 19937 ft | 271 kts | 297° |
| 2026-05-05 20:23 | 33.95541 | -116.60930 | 19936 ft | 271 kts | 297° |
| 2026-05-05 20:24 | 33.96483 | -116.62914 | 19936 ft | 271 kts | 297° |
| 2026-05-05 20:24 | 33.97424 | -116.64900 | 19936 ft | 271 kts | 297° |
| 2026-05-05 20:24 | 33.98360 | -116.66875 | 19941 ft | 271 kts | 296° |
| 2026-05-05 20:24 | 33.99304 | -116.68869 | 19941 ft | 272 kts | 296° |
| 2026-05-05 20:25 | 34.00242 | -116.70851 | 19941 ft | 272 kts | 296° |
| 2026-05-05 20:25 | 34.01184 | -116.72842 | 19941 ft | 272 kts | 296° |
| 2026-05-05 20:25 | 34.02128 | -116.74837 | 19941 ft | 272 kts | 296° |
| 2026-05-05 20:25 | 34.03056 | -116.76803 | 19941 ft | 272 kts | 296° |
| 2026-05-05 20:26 | 34.04007 | -116.78818 | 19940 ft | 272 kts | 296° |
| 2026-05-05 20:26 | 34.04935 | -116.80785 | 19940 ft | 272 kts | 296° |
| 2026-05-05 20:26 | 34.05887 | -116.82804 | 19940 ft | 272 kts | 296° |
| 2026-05-05 20:26 | 34.06815 | -116.84773 | 19940 ft | 272 kts | 296° |
| 2026-05-05 20:27 | 34.07761 | -116.86781 | 19940 ft | 272 kts | 296° |
| 2026-05-05 20:27 | 34.08698 | -116.88774 | 19943 ft | 272 kts | 296° |
| 2026-05-05 20:27 | 34.09631 | -116.90759 | 19959 ft | 271 kts | 296° |
| 2026-05-05 20:27 | 34.10558 | -116.92733 | 19974 ft | 271 kts | 297° |
| 2026-05-05 20:28 | 34.11492 | -116.94720 | 19988 ft | 271 kts | 297° |
| 2026-05-05 20:28 | 34.12435 | -116.96729 | 20000 ft | 272 kts | 297° |
| 2026-05-05 20:28 | 34.13355 | -116.98689 | 20010 ft | 272 kts | 297° |
| 2026-05-05 20:28 | 34.14300 | -117.00703 | 20018 ft | 273 kts | 297° |
| 2026-05-05 20:29 | 34.15243 | -117.02715 | 20024 ft | 273 kts | 297° |
| 2026-05-05 20:29 | 34.16176 | -117.04707 | 20028 ft | 274 kts | 297° |
| 2026-05-05 20:29 | 34.17121 | -117.06726 | 20029 ft | 275 kts | 298° |
| 2026-05-05 20:29 | 34.18060 | -117.08732 | 20028 ft | 275 kts | 298° |
| 2026-05-05 20:30 | 34.19017 | -117.10777 | 20026 ft | 276 kts | 298° |
| 2026-05-05 20:30 | 34.19961 | -117.12796 | 20021 ft | 277 kts | 298° |
| 2026-05-05 20:30 | 34.20901 | -117.14803 | 19977 ft | 268 kts | 298° |
| 2026-05-05 20:30 | 34.21799 | -117.16727 | 19441 ft | 264 kts | 298° |
| 2026-05-05 20:31 | 34.22703 | -117.18665 | 18672 ft | 265 kts | 298° |
| 2026-05-05 20:31 | 34.23607 | -117.20605 | 17919 ft | 265 kts | 298° |
| 2026-05-05 20:31 | 34.24527 | -117.22578 | 17017 ft | 270 kts | 298° |
| 2026-05-05 20:31 | 34.25446 | -117.24549 | 16026 ft | 276 kts | 298° |
| 2026-05-05 20:32 | 34.26388 | -117.26572 | 15027 ft | 279 kts | 298° |
| 2026-05-05 20:32 | 34.27334 | -117.28604 | 14030 ft | 280 kts | 299° |
| 2026-05-05 20:32 | 34.28287 | -117.30653 | 13026 ft | 281 kts | 299° |
| 2026-05-05 20:32 | 34.29234 | -117.32690 | 12510 ft | 274 kts | 299° |
| 2026-05-05 20:33 | 34.30167 | -117.34698 | 12512 ft | 268 kts | 299° |
| 2026-05-05 20:33 | 34.31066 | -117.36630 | 12506 ft | 265 kts | 299° |
| 2026-05-05 20:33 | 34.31982 | -117.38601 | 12505 ft | 262 kts | 299° |
| 2026-05-05 20:33 | 34.32851 | -117.40474 | 12505 ft | 260 kts | 299° |
| 2026-05-05 20:34 | 34.33745 | -117.42400 | 12505 ft | 259 kts | 299° |
| 2026-05-05 20:34 | 34.34643 | -117.44339 | 12504 ft | 259 kts | 299° |
| 2026-05-05 20:34 | 34.35521 | -117.46232 | 12503 ft | 258 kts | 299° |
| 2026-05-05 20:34 | 34.36400 | -117.48131 | 12502 ft | 258 kts | 299° |
| 2026-05-05 20:35 | 34.37279 | -117.50029 | 12500 ft | 258 kts | 299° |
| 2026-05-05 20:35 | 34.38157 | -117.51927 | 12500 ft | 259 kts | 299° |
| 2026-05-05 20:35 | 34.39050 | -117.53858 | 12497 ft | 260 kts | 299° |
| 2026-05-05 20:35 | 34.39939 | -117.55784 | 12496 ft | 261 kts | 299° |
| 2026-05-05 20:36 | 34.40841 | -117.57710 | 12487 ft | 265 kts | 296° |
| 2026-05-05 20:36 | 34.41752 | -117.59695 | 12494 ft | 267 kts | 297° |
| 2026-05-05 20:36 | 34.42654 | -117.61659 | 12447 ft | 271 kts | 297° |
| 2026-05-05 20:36 | 34.43597 | -117.63708 | 11962 ft | 281 kts | 297° |
| 2026-05-05 20:37 | 34.44564 | -117.65810 | 11463 ft | 286 kts | 296° |
| 2026-05-05 20:37 | 34.45547 | -117.67947 | 10964 ft | 290 kts | 296° |
| 2026-05-05 20:37 | 34.46530 | -117.70089 | 10538 ft | 288 kts | 297° |
| 2026-05-05 20:37 | 34.47478 | -117.72164 | 10493 ft | 275 kts | 298° |
| 2026-05-05 20:38 | 34.48407 | -117.74174 | 10488 ft | 266 kts | 298° |
| 2026-05-05 20:38 | 34.49303 | -117.76118 | 10488 ft | 260 kts | 298° |
| 2026-05-05 20:38 | 34.50183 | -117.78031 | 10488 ft | 256 kts | 298° |
| 2026-05-05 20:38 | 34.51051 | -117.79922 | 10491 ft | 254 kts | 298° |
| 2026-05-05 20:39 | 34.51909 | -117.81792 | 10491 ft | 253 kts | 298° |
| 2026-05-05 20:39 | 34.52776 | -117.83682 | 10493 ft | 253 kts | 298° |
| 2026-05-05 20:39 | 34.53624 | -117.85535 | 10493 ft | 253 kts | 298° |
| 2026-05-05 20:39 | 34.54488 | -117.87422 | 10493 ft | 253 kts | 298° |
| 2026-05-05 20:40 | 34.55350 | -117.89307 | 10493 ft | 253 kts | 298° |
| 2026-05-05 20:40 | 34.56208 | -117.91182 | 10493 ft | 253 kts | 298° |
| 2026-05-05 20:40 | 34.57059 | -117.93044 | 10493 ft | 253 kts | 297° |
| 2026-05-05 20:40 | 34.57927 | -117.94943 | 10493 ft | 253 kts | 297° |
| 2026-05-05 20:41 | 34.58782 | -117.96817 | 10493 ft | 253 kts | 297° |
| 2026-05-05 20:41 | 34.59639 | -117.98694 | 10493 ft | 253 kts | 297° |
| 2026-05-05 20:41 | 34.60492 | -118.00566 | 10493 ft | 253 kts | 297° |
| 2026-05-05 20:41 | 34.61344 | -118.02432 | 10493 ft | 253 kts | 297° |
| 2026-05-05 20:42 | 34.62003 | -118.03876 | 10492 ft | 253 kts | 296° |
| 2026-05-05 20:42 | 34.62488 | -118.04941 | 10494 ft | 253 kts | 296° |
| 2026-05-05 20:42 | 34.63403 | -118.06726 | 10475 ft | 257 kts | 307° |
| 2026-05-05 20:42 | 34.64641 | -118.08348 | 10496 ft | 256 kts | 310° |
| 2026-05-05 20:43 | 34.65874 | -118.09941 | 10495 ft | 257 kts | 310° |
| 2026-05-05 20:43 | 34.67105 | -118.11540 | 10492 ft | 256 kts | 310° |
| 2026-05-05 20:43 | 34.68332 | -118.13135 | 10494 ft | 254 kts | 310° |
| 2026-05-05 20:43 | 34.69548 | -118.14716 | 10491 ft | 254 kts | 311° |
| 2026-05-05 20:44 | 34.70752 | -118.16277 | 10492 ft | 253 kts | 311° |
| 2026-05-05 20:44 | 34.71968 | -118.17859 | 10492 ft | 253 kts | 311° |
| 2026-05-05 20:44 | 34.73183 | -118.19443 | 10490 ft | 252 kts | 311° |
| 2026-05-05 20:44 | 34.74472 | -118.20928 | 10461 ft | 255 kts | 326° |